Time,TemperatureF,DewpointF,PressureIn,WindDirection,WindDirectionDegrees,WindSpeedMPH,WindSpeedGustMPH,Humidity,HourlyPrecipIn,Conditions,Clouds,dailyrainin,SoftwareType,DateUTC
2013-05-18 00:02:00,50.7,32.3,30.11,SE,136,2.2,3.1,49,0.00,,,0.00,VWS V14.01,2013-05-18 07:02:00,
2013-05-18 00:07:00,50.7,32.3,30.11,SSE,158,2.7,3.6,49,0.00,,,0.00,VWS V14.01,2013-05-18 07:07:00,
2013-05-18 00:12:00,50.7,32.3,30.11,South,169,0.0,4.0,49,0.00,,,0.00,VWS V14.01,2013-05-18 07:12:00,
2013-05-18 00:17:00,50.7,32.8,30.11,SSE,160,3.1,5.4,50,0.00,,,0.00,VWS V14.01,2013-05-18 07:17:00,
2013-05-18 00:22:00,50.7,32.8,30.11,South,177,2.7,5.8,50,0.00,,,0.00,VWS V14.01,2013-05-18 07:22:00,
2013-05-18 00:27:00,50.7,32.8,30.11,South,175,2.7,3.6,50,0.00,,,0.00,VWS V14.01,2013-05-18 07:27:00,
2013-05-18 00:32:00,50.7,33.3,30.11,SW,219,3.6,3.6,51,0.00,,,0.00,VWS V14.01,2013-05-18 07:32:00,
2013-05-18 00:37:00,50.5,33.1,30.11,SE,138,3.6,3.6,51,0.00,,,0.00,VWS V14.01,2013-05-18 07:37:00,
2013-05-18 00:42:00,50.5,33.1,30.11,East,93,2.7,3.6,51,0.00,,,0.00,VWS V14.01,2013-05-18 07:42:00,
2013-05-18 00:47:00,50.5,33.1,30.11,SE,125,2.7,4.0,51,0.00,,,0.00,VWS V14.01,2013-05-18 07:47:00,
2013-05-18 00:52:00,50.5,33.1,30.11,South,176,2.7,4.0,51,0.00,,,0.00,VWS V14.01,2013-05-18 07:52:00,
2013-05-18 00:57:00,50.4,32.9,30.11,SE,134,2.7,4.9,51,0.00,,,0.00,VWS V14.01,2013-05-18 07:57:00,
2013-05-18 01:03:00,50.4,33.4,30.11,South,190,3.1,3.6,52,0.00,,,0.00,VWS V14.01,2013-05-18 08:03:00,
2013-05-18 01:08:00,50.5,33.6,30.11,SSE,150,2.7,3.6,52,0.00,,,0.00,VWS V14.01,2013-05-18 08:08:00,
2013-05-18 01:13:00,50.5,33.6,30.11,South,180,2.7,2.7,52,0.00,,,0.00,VWS V14.01,2013-05-18 08:13:00,
2013-05-18 01:18:00,50.5,33.6,30.11,South,181,2.2,2.7,52,0.00,,,0.00,VWS V14.01,2013-05-18 08:18:00,
2013-05-18 01:23:00,50.5,34.1,30.11,SSE,151,3.1,3.6,53,0.00,,,0.00,VWS V14.01,2013-05-18 08:23:00,
2013-05-18 01:28:00,50.4,33.9,30.11,East,95,2.2,4.0,53,0.00,,,0.00,VWS V14.01,2013-05-18 08:28:00,
2013-05-18 01:33:00,50.4,33.9,30.11,South,178,0.0,0.0,53,0.00,,,0.00,VWS V14.01,2013-05-18 08:33:00,
2013-05-18 01:38:00,50.2,33.7,30.11,SW,216,2.2,3.6,53,0.00,,,0.00,VWS V14.01,2013-05-18 08:38:00,
2013-05-18 01:43:00,50.2,33.7,30.11,East,84,0.0,3.1,53,0.00,,,0.00,VWS V14.01,2013-05-18 08:43:00,
2013-05-18 01:48:00,50.0,33.6,30.11,South,189,2.7,2.7,53,0.00,,,0.00,VWS V14.01,2013-05-18 08:48:00,
2013-05-18 01:53:00,50.0,33.6,30.11,SSE,153,2.7,2.7,53,0.00,,,0.00,VWS V14.01,2013-05-18 08:53:00,
2013-05-18 01:58:00,49.8,33.4,30.11,SSE,165,0.0,0.0,53,0.00,,,0.00,VWS V14.01,2013-05-18 08:58:00,
2013-05-18 02:03:00,49.6,33.7,30.11,SSW,213,2.2,2.2,54,0.00,,,0.00,VWS V14.01,2013-05-18 09:03:00,
2013-05-18 02:08:00,49.6,33.7,30.11,SW,220,0.0,0.0,54,0.00,,,0.00,VWS V14.01,2013-05-18 09:08:00,
2013-05-18 02:13:00,49.6,33.7,30.11,South,186,0.0,0.0,54,0.00,,,0.00,VWS V14.01,2013-05-18 09:13:00,
2013-05-18 02:18:00,49.6,33.7,30.11,South,183,2.2,3.1,54,0.00,,,0.00,VWS V14.01,2013-05-18 09:18:00,
2013-05-18 02:23:00,49.6,33.7,30.11,WSW,255,0.0,0.0,54,0.00,,,0.00,VWS V14.01,2013-05-18 09:23:00,
2013-05-18 02:28:00,49.6,33.7,30.11,East,91,0.0,0.0,54,0.00,,,0.00,VWS V14.01,2013-05-18 09:28:00,
2013-05-18 02:33:00,49.6,33.7,30.11,South,169,2.7,2.7,54,0.00,,,0.00,VWS V14.01,2013-05-18 09:33:00,
2013-05-18 02:38:00,49.6,34.2,30.11,SSE,154,2.7,3.1,55,0.00,,,0.00,VWS V14.01,2013-05-18 09:38:00,
2013-05-18 02:43:00,49.6,34.2,30.11,ESE,115,0.0,3.1,55,0.00,,,0.00,VWS V14.01,2013-05-18 09:43:00,
2013-05-18 02:48:00,49.6,34.2,30.11,East,94,3.1,3.1,55,0.00,,,0.00,VWS V14.01,2013-05-18 09:48:00,
2013-05-18 02:53:00,49.6,34.2,30.11,ESE,106,0.0,0.0,55,0.00,,,0.00,VWS V14.01,2013-05-18 09:53:00,
2013-05-18 02:58:00,49.6,34.2,30.11,South,175,2.2,2.2,55,0.00,,,0.00,VWS V14.01,2013-05-18 09:58:00,
2013-05-18 03:03:00,49.6,34.2,30.11,SSE,149,2.2,2.2,55,0.00,,,0.00,VWS V14.01,2013-05-18 10:03:00,
2013-05-18 03:08:00,49.6,34.2,30.11,South,177,0.0,2.7,55,0.00,,,0.00,VWS V14.01,2013-05-18 10:08:00,
2013-05-18 03:13:00,49.6,34.6,30.11,SSE,160,2.2,3.6,56,0.00,,,0.00,VWS V14.01,2013-05-18 10:13:00,
2013-05-18 03:18:00,49.6,34.6,30.11,SSW,206,0.0,0.0,56,0.00,,,0.00,VWS V14.01,2013-05-18 10:18:00,
2013-05-18 03:23:00,49.6,34.6,30.11,SSE,147,3.1,3.1,56,0.00,,,0.00,VWS V14.01,2013-05-18 10:23:00,
2013-05-18 03:28:00,49.6,34.6,30.11,South,188,0.0,0.0,56,0.00,,,0.00,VWS V14.01,2013-05-18 10:28:00,
2013-05-18 03:33:00,49.6,34.6,30.11,SSW,200,2.7,2.7,56,0.00,,,0.00,VWS V14.01,2013-05-18 10:33:00,
2013-05-18 03:38:00,49.6,34.6,30.11,ESE,114,2.2,4.0,56,0.00,,,0.00,VWS V14.01,2013-05-18 10:38:00,
2013-05-18 03:43:00,49.6,34.6,30.11,SE,129,3.1,4.9,56,0.00,,,0.00,VWS V14.01,2013-05-18 10:43:00,
2013-05-18 03:49:00,49.6,35.0,30.11,South,184,0.0,4.0,57,0.00,,,0.00,VWS V14.01,2013-05-18 10:49:00,
2013-05-18 03:54:00,49.5,34.9,30.11,South,189,0.0,0.0,57,0.00,,,0.00,VWS V14.01,2013-05-18 10:54:00,
2013-05-18 03:59:00,49.5,34.9,30.11,SE,139,0.0,0.0,57,0.00,,,0.00,VWS V14.01,2013-05-18 10:59:00,
2013-05-18 04:04:00,49.5,34.9,30.11,SSE,151,2.7,3.6,57,0.00,,,0.00,VWS V14.01,2013-05-18 11:04:00,
2013-05-18 04:09:00,49.5,34.9,30.11,ESE,122,2.2,2.2,57,0.00,,,0.00,VWS V14.01,2013-05-18 11:09:00,
2013-05-18 04:14:00,49.5,35.3,30.11,ESE,115,0.0,2.2,58,0.00,,,0.00,VWS V14.01,2013-05-18 11:14:00,
2013-05-18 04:19:00,49.5,34.9,30.11,ESE,115,0.0,0.0,57,0.00,,,0.00,VWS V14.01,2013-05-18 11:19:00,
2013-05-18 04:24:00,49.3,34.7,30.11,South,174,2.2,3.1,57,0.00,,,0.00,VWS V14.01,2013-05-18 11:24:00,
2013-05-18 04:29:00,49.3,35.1,30.11,South,180,0.0,0.0,58,0.00,,,0.00,VWS V14.01,2013-05-18 11:29:00,
2013-05-18 04:34:00,49.3,34.7,30.11,SSE,155,0.0,0.0,57,0.00,,,0.00,VWS V14.01,2013-05-18 11:34:00,
2013-05-18 04:39:00,49.1,34.5,30.11,SSE,155,0.0,0.0,57,0.00,,,0.00,VWS V14.01,2013-05-18 11:39:00,
2013-05-18 04:44:00,48.9,34.4,30.11,SSE,166,0.0,0.0,57,0.00,,,0.00,VWS V14.01,2013-05-18 11:44:00,
2013-05-18 04:49:00,48.7,34.2,30.11,SSE,159,0.0,0.0,57,0.00,,,0.00,VWS V14.01,2013-05-18 11:49:00,
2013-05-18 04:54:00,48.7,34.6,30.11,SE,139,0.0,0.0,58,0.00,,,0.00,VWS V14.01,2013-05-18 11:54:00,
2013-05-18 04:59:00,48.7,34.6,30.11,SE,139,0.0,0.0,58,0.00,,,0.00,VWS V14.01,2013-05-18 11:59:00,
2013-05-18 05:04:00,48.7,34.6,30.11,SSW,194,0.0,0.0,58,0.00,,,0.00,VWS V14.01,2013-05-18 12:04:00,
2013-05-18 05:09:00,48.7,34.6,30.11,South,185,0.0,2.2,58,0.00,,,0.00,VWS V14.01,2013-05-18 12:09:00,
2013-05-18 05:14:00,48.7,34.6,30.11,South,175,2.7,2.7,58,0.00,,,0.00,VWS V14.01,2013-05-18 12:14:00,
2013-05-18 05:19:00,48.7,34.6,30.11,SSE,167,0.0,0.0,58,0.00,,,0.00,VWS V14.01,2013-05-18 12:19:00,
2013-05-18 05:24:00,48.6,34.5,30.11,South,171,2.2,3.1,58,0.00,,,0.00,VWS V14.01,2013-05-18 12:24:00,
2013-05-18 05:29:00,48.6,34.5,30.11,ESE,104,3.1,3.1,58,0.00,,,0.00,VWS V14.01,2013-05-18 12:29:00,
2013-05-18 05:34:00,48.7,35.1,30.11,South,174,2.7,2.7,59,0.00,,,0.00,VWS V14.01,2013-05-18 12:34:00,
2013-05-18 05:39:00,48.9,34.8,30.11,SSW,206,0.0,0.0,58,0.00,,,0.00,VWS V14.01,2013-05-18 12:39:00,
2013-05-18 05:44:00,48.7,34.6,30.11,SSE,151,0.0,2.7,58,0.00,,,0.00,VWS V14.01,2013-05-18 12:44:00,
2013-05-18 05:49:00,48.7,34.6,30.11,SE,138,2.2,3.6,58,0.00,,,0.00,VWS V14.01,2013-05-18 12:49:00,
2013-05-18 05:54:00,48.9,35.2,30.11,South,180,0.0,0.0,59,0.00,,,0.00,VWS V14.01,2013-05-18 12:54:00,
2013-05-18 05:59:00,49.1,35.4,30.11,SW,227,0.0,0.0,59,0.00,,,0.00,VWS V14.01,2013-05-18 12:59:00,
2013-05-18 06:04:00,49.1,35.4,30.11,SSW,212,4.0,4.0,59,0.00,,,0.00,VWS V14.01,2013-05-18 13:04:00,
2013-05-18 06:09:00,49.1,35.4,30.11,SE,136,0.0,0.0,59,0.00,,,0.00,VWS V14.01,2013-05-18 13:09:00,
2013-05-18 06:14:00,49.3,35.6,30.11,South,186,2.7,3.6,59,0.00,,,0.00,VWS V14.01,2013-05-18 13:14:00,
2013-05-18 06:19:00,49.3,36.0,30.11,South,176,0.0,0.0,60,0.00,,,0.00,VWS V14.01,2013-05-18 13:19:00,
2013-05-18 06:24:00,49.5,36.2,30.11,WSW,253,2.7,4.0,60,0.00,,,0.00,VWS V14.01,2013-05-18 13:24:00,
2013-05-18 06:30:00,49.5,36.2,30.11,SSW,207,0.0,4.0,60,0.00,,,0.00,VWS V14.01,2013-05-18 13:30:00,
2013-05-18 06:35:00,49.5,36.2,30.11,SSE,161,0.0,3.6,60,0.00,,,0.00,VWS V14.01,2013-05-18 13:35:00,
2013-05-18 06:40:00,49.6,36.3,30.11,South,173,0.0,2.7,60,0.00,,,0.00,VWS V14.01,2013-05-18 13:40:00,
2013-05-18 06:45:00,49.6,36.8,30.11,South,181,0.0,0.0,61,0.00,,,0.00,VWS V14.01,2013-05-18 13:45:00,
2013-05-18 06:50:00,49.8,36.9,30.11,SW,226,3.1,3.1,61,0.00,,,0.00,VWS V14.01,2013-05-18 13:50:00,
2013-05-18 06:55:00,49.8,36.9,30.11,SW,234,3.6,3.6,61,0.00,,,0.00,VWS V14.01,2013-05-18 13:55:00,
2013-05-18 07:00:00,50.0,37.1,30.11,SSE,157,2.7,3.1,61,0.00,,,0.00,VWS V14.01,2013-05-18 14:00:00,
2013-05-18 07:05:00,50.4,37.8,30.11,ESE,104,2.7,3.1,62,0.00,,,0.00,VWS V14.01,2013-05-18 14:05:00,
2013-05-18 07:10:00,50.5,38.0,30.11,SE,146,2.2,3.1,62,0.00,,,0.00,VWS V14.01,2013-05-18 14:10:00,
2013-05-18 07:15:00,50.7,38.2,30.11,South,179,0.0,0.0,62,0.00,,,0.00,VWS V14.01,2013-05-18 14:15:00,
2013-05-18 07:20:00,51.3,39.1,30.11,SSW,212,2.7,2.7,63,0.00,,,0.00,VWS V14.01,2013-05-18 14:20:00,
2013-05-18 07:25:00,51.6,39.8,30.11,SSW,206,2.2,2.7,64,0.00,,,0.00,VWS V14.01,2013-05-18 14:25:00,
2013-05-18 07:30:00,52.0,39.8,30.11,SSE,155,3.1,4.0,63,0.00,,,0.00,VWS V14.01,2013-05-18 14:30:00,
2013-05-18 07:35:00,52.3,40.1,30.11,ESE,121,0.0,0.0,63,0.00,,,0.00,VWS V14.01,2013-05-18 14:35:00,
2013-05-18 07:40:00,52.9,41.0,30.11,SW,231,2.7,3.1,64,0.00,,,0.00,VWS V14.01,2013-05-18 14:40:00,
2013-05-18 07:45:00,53.4,41.6,30.11,South,190,5.4,5.4,64,0.00,,,0.00,VWS V14.01,2013-05-18 14:45:00,
2013-05-18 07:50:00,54.1,42.2,30.11,SSE,147,2.7,2.7,64,0.00,,,0.00,VWS V14.01,2013-05-18 14:50:00,
2013-05-18 07:55:00,54.5,42.2,30.11,South,189,0.0,2.7,63,0.00,,,0.00,VWS V14.01,2013-05-18 14:55:00,
2013-05-18 08:00:00,54.7,41.1,30.11,ESE,120,0.0,0.0,60,0.00,,,0.00,VWS V14.01,2013-05-18 15:00:00,
2013-05-18 08:05:00,55.0,41.4,30.11,SSE,150,3.1,3.1,60,0.00,,,0.00,VWS V14.01,2013-05-18 15:05:00,
2013-05-18 08:10:00,55.4,41.3,30.11,SSW,202,0.0,0.0,59,0.00,,,0.00,VWS V14.01,2013-05-18 15:10:00,
2013-05-18 08:15:00,55.8,41.2,30.11,SSW,196,2.7,2.7,58,0.00,,,0.00,VWS V14.01,2013-05-18 15:15:00,
2013-05-18 08:20:00,55.9,40.5,30.11,South,181,2.2,3.6,56,0.00,,,0.00,VWS V14.01,2013-05-18 15:20:00,
2013-05-18 08:25:00,55.9,39.1,30.11,SSW,207,3.6,3.6,53,0.00,,,0.00,VWS V14.01,2013-05-18 15:25:00,
2013-05-18 08:30:00,56.1,38.3,30.11,SW,220,4.0,4.0,51,0.00,,,0.00,VWS V14.01,2013-05-18 15:30:00,
2013-05-18 08:35:00,56.3,36.9,30.11,South,187,3.1,3.6,48,0.00,,,0.00,VWS V14.01,2013-05-18 15:35:00,
2013-05-18 08:40:00,56.3,35.2,30.11,SW,219,4.9,4.9,45,0.00,,,0.00,VWS V14.01,2013-05-18 15:40:00,
2013-05-18 08:45:00,56.5,31.8,30.11,SSW,204,2.7,4.0,39,0.00,,,0.00,VWS V14.01,2013-05-18 15:45:00,
2013-05-18 08:50:00,56.7,30.7,30.11,South,176,2.7,3.6,37,0.00,,,0.00,VWS V14.01,2013-05-18 15:50:00,
2013-05-18 08:55:00,56.8,30.2,30.11,SW,228,4.0,4.0,36,0.00,,,0.00,VWS V14.01,2013-05-18 15:55:00,
2013-05-18 09:00:00,57.0,26.7,30.11,South,170,0.0,3.1,31,0.00,,,0.00,VWS V14.01,2013-05-18 16:00:00,
2013-05-18 09:05:00,57.2,26.1,30.11,South,176,0.0,2.2,30,0.00,,,0.00,VWS V14.01,2013-05-18 16:05:00,
2013-05-18 09:10:00,57.6,24.7,30.11,ESE,120,3.1,4.0,28,0.00,,,0.00,VWS V14.01,2013-05-18 16:10:00,
2013-05-18 09:16:00,57.7,24.9,30.11,SW,228,4.9,6.3,28,0.00,,,0.00,VWS V14.01,2013-05-18 16:16:00,
2013-05-18 09:21:00,58.1,24.3,30.11,SSW,199,3.1,5.4,27,0.00,,,0.00,VWS V14.01,2013-05-18 16:21:00,
2013-05-18 09:26:00,58.1,23.4,30.11,ESE,122,2.7,3.6,26,0.00,,,0.00,VWS V14.01,2013-05-18 16:26:00,
2013-05-18 09:31:00,58.5,23.7,30.11,SSE,160,2.7,5.4,26,0.00,,,0.00,VWS V14.01,2013-05-18 16:31:00,
2013-05-18 09:36:00,58.6,22.9,30.11,ESE,112,2.2,4.0,25,0.00,,,0.00,VWS V14.01,2013-05-18 16:36:00,
2013-05-18 09:41:00,59.0,23.2,30.11,ENE,71,3.1,3.1,25,0.00,,,0.00,VWS V14.01,2013-05-18 16:41:00,
2013-05-18 09:46:00,59.2,22.4,30.11,SSW,200,4.0,4.0,24,0.00,,,0.00,VWS V14.01,2013-05-18 16:46:00,
2013-05-18 09:51:00,59.4,22.6,30.11,WSW,238,4.9,4.9,24,0.00,,,0.00,VWS V14.01,2013-05-18 16:51:00,
2013-05-18 09:56:00,59.7,20.8,30.11,SSW,201,2.7,2.7,22,0.00,,,0.00,VWS V14.01,2013-05-18 16:56:00,
2013-05-18 10:01:00,60.1,21.1,30.11,WSW,246,4.0,4.9,22,0.00,,,0.00,VWS V14.01,2013-05-18 17:01:00,
2013-05-18 10:06:00,60.4,18.0,30.11,SSE,163,5.4,5.4,19,0.00,,,0.00,VWS V14.01,2013-05-18 17:06:00,
2013-05-18 10:11:00,60.6,18.2,30.11,SSW,208,4.0,4.0,19,0.00,,,0.00,VWS V14.01,2013-05-18 17:11:00,
2013-05-18 10:16:00,60.8,14.4,30.11,WSW,237,2.7,4.0,16,0.00,,,0.00,VWS V14.01,2013-05-18 17:16:00,
2013-05-18 10:21:00,61.3,14.8,30.11,WSW,243,3.1,3.1,16,0.00,,,0.00,VWS V14.01,2013-05-18 17:21:00,
2013-05-18 10:26:00,61.7,15.1,30.11,SE,135,2.7,5.4,16,0.00,,,0.00,VWS V14.01,2013-05-18 17:26:00,
2013-05-18 10:31:00,62.1,12.3,30.11,WSW,245,6.3,6.3,14,0.00,,,0.00,VWS V14.01,2013-05-18 17:31:00,
2013-05-18 10:36:00,62.4,12.6,30.11,SW,214,3.1,3.1,14,0.00,,,0.00,VWS V14.01,2013-05-18 17:36:00,
2013-05-18 10:41:00,62.6,11.1,30.11,SSE,147,0.0,3.1,13,0.00,,,0.00,VWS V14.01,2013-05-18 17:41:00,
2013-05-18 10:46:00,62.8,11.2,30.11,SSE,159,4.0,4.0,13,0.00,,,0.00,VWS V14.01,2013-05-18 17:46:00,
2013-05-18 10:51:00,63.0,11.4,30.11,SSE,157,3.6,3.6,13,0.00,,,0.00,VWS V14.01,2013-05-18 17:51:00,
2013-05-18 10:56:00,63.5,11.8,30.11,SW,229,2.7,4.0,13,0.00,,,0.00,VWS V14.01,2013-05-18 17:56:00,
2013-05-18 11:01:00,63.9,12.1,30.11,SSE,164,0.0,3.1,13,0.00,,,0.00,VWS V14.01,2013-05-18 18:01:00,
2013-05-18 11:06:00,64.2,12.4,30.11,SSW,205,0.0,3.1,13,0.00,,,0.00,VWS V14.01,2013-05-18 18:06:00,
2013-05-18 11:11:00,64.6,12.7,30.11,SW,232,4.5,5.8,13,0.00,,,0.00,VWS V14.01,2013-05-18 18:11:00,
2013-05-18 11:16:00,64.6,12.7,30.11,SW,225,4.0,5.8,13,0.00,,,0.00,VWS V14.01,2013-05-18 18:16:00,
2013-05-18 11:21:00,64.8,12.8,30.11,WSW,250,3.6,6.3,13,0.00,,,0.00,VWS V14.01,2013-05-18 18:21:00,
2013-05-18 11:26:00,64.9,12.9,30.11,WSW,245,4.0,4.9,13,0.00,,,0.00,VWS V14.01,2013-05-18 18:26:00,
2013-05-18 11:31:00,64.9,12.9,30.11,WNW,285,5.4,5.8,13,0.00,,,0.00,VWS V14.01,2013-05-18 18:31:00,
2013-05-18 11:36:00,64.8,12.8,30.11,SSW,209,3.6,3.6,13,0.00,,,0.00,VWS V14.01,2013-05-18 18:36:00,
2013-05-18 11:41:00,64.9,12.9,30.11,South,183,4.0,4.0,13,0.00,,,0.00,VWS V14.01,2013-05-18 18:41:00,
2013-05-18 11:46:00,65.1,13.1,30.11,West,281,2.7,4.0,13,0.00,,,0.00,VWS V14.01,2013-05-18 18:46:00,
2013-05-18 11:51:00,65.3,7.4,30.11,WSW,247,3.6,4.9,10,0.00,,,0.00,VWS V14.01,2013-05-18 18:51:00,
2013-05-18 11:57:00,65.5,13.4,30.11,SW,233,3.6,4.9,13,0.00,,,0.00,VWS V14.01,2013-05-18 18:57:00,
2013-05-18 12:02:00,65.8,13.6,30.11,SW,225,0.0,4.9,13,0.00,,,0.00,VWS V14.01,2013-05-18 19:02:00,
2013-05-18 12:07:00,66.2,12.1,30.11,SSW,202,3.1,5.4,12,0.00,,,0.00,VWS V14.01,2013-05-18 19:07:00,
2013-05-18 12:12:00,66.6,12.4,30.11,SW,229,3.6,3.6,12,0.00,,,0.00,VWS V14.01,2013-05-18 19:12:00,
2013-05-18 12:17:00,67.3,8.9,30.11,SW,231,4.9,4.9,10,0.00,,,0.00,VWS V14.01,2013-05-18 19:17:00,
2013-05-18 12:22:00,67.5,9.0,30.11,SSW,210,2.7,6.3,10,0.00,,,0.00,VWS V14.01,2013-05-18 19:22:00,
2013-05-18 12:27:00,67.1,8.7,30.11,WSW,257,3.1,3.6,10,0.00,,,0.00,VWS V14.01,2013-05-18 19:27:00,
2013-05-18 12:32:00,67.5,9.0,30.11,SSW,196,4.0,5.4,10,0.00,,,0.00,VWS V14.01,2013-05-18 19:32:00,
2013-05-18 12:37:00,67.8,9.3,30.11,WSW,241,4.9,5.8,10,0.00,,,0.00,VWS V14.01,2013-05-18 19:37:00,
2013-05-18 12:42:00,67.8,9.3,30.11,West,271,4.9,5.4,10,0.00,,,0.00,VWS V14.01,2013-05-18 19:42:00,
2013-05-18 12:47:00,68.4,9.7,30.11,SSW,203,2.7,3.6,10,0.00,,,0.00,VWS V14.01,2013-05-18 19:47:00,
2013-05-18 12:52:00,68.9,10.1,30.11,SSW,206,5.4,5.4,10,0.00,,,0.00,VWS V14.01,2013-05-18 19:52:00,
2013-05-18 12:57:00,68.7,10.0,30.11,SW,224,5.8,5.8,10,0.00,,,0.00,VWS V14.01,2013-05-18 19:57:00,
2013-05-18 13:02:00,68.9,10.1,30.11,SW,236,3.1,3.6,10,0.00,,,0.00,VWS V14.01,2013-05-18 20:02:00,
2013-05-18 13:07:00,68.9,10.1,30.11,WNW,285,2.7,4.0,10,0.00,,,0.00,VWS V14.01,2013-05-18 20:07:00,
2013-05-18 13:12:00,68.9,10.1,30.11,SSW,206,2.7,4.9,10,0.00,,,0.00,VWS V14.01,2013-05-18 20:12:00,
2013-05-18 13:17:00,69.3,10.4,30.11,WSW,240,4.0,4.0,10,0.00,,,0.00,VWS V14.01,2013-05-18 20:17:00,
2013-05-18 13:22:00,69.6,10.7,30.11,SSW,200,3.1,5.4,10,0.00,,,0.00,VWS V14.01,2013-05-18 20:22:00,
2013-05-18 13:27:00,69.8,8.5,30.11,SW,231,5.8,5.8,9,0.00,,,0.00,VWS V14.01,2013-05-18 20:27:00,
2013-05-18 13:32:00,69.4,10.5,30.11,SSE,150,4.0,4.0,10,0.00,,,0.00,VWS V14.01,2013-05-18 20:32:00,
2013-05-18 13:37:00,69.6,10.7,30.11,SSW,199,4.0,4.0,10,0.00,,,0.00,VWS V14.01,2013-05-18 20:37:00,
2013-05-18 13:42:00,69.4,10.5,30.11,SSW,210,4.0,5.4,10,0.00,,,0.00,VWS V14.01,2013-05-18 20:42:00,
2013-05-18 13:47:00,69.1,10.3,30.11,West,261,3.6,5.8,10,0.00,,,0.00,VWS V14.01,2013-05-18 20:47:00,
2013-05-18 13:52:00,68.7,10.0,30.11,WSW,245,3.1,5.4,10,0.00,,,0.00,VWS V14.01,2013-05-18 20:52:00,
2013-05-18 13:57:00,68.2,9.6,30.11,SSW,208,4.0,4.0,10,0.00,,,0.00,VWS V14.01,2013-05-18 20:57:00,
2013-05-18 14:02:00,68.7,10.0,30.11,South,182,3.6,4.9,10,0.00,,,0.00,VWS V14.01,2013-05-18 21:02:00,
2013-05-18 14:07:00,69.1,10.3,30.11,South,171,3.6,3.6,10,0.00,,,0.00,VWS V14.01,2013-05-18 21:07:00,
2013-05-18 14:12:00,69.1,10.3,30.11,WSW,244,3.6,5.8,10,0.00,,,0.00,VWS V14.01,2013-05-18 21:12:00,
2013-05-18 14:17:00,69.3,10.4,30.11,South,181,5.8,5.8,10,0.00,,,0.00,VWS V14.01,2013-05-18 21:17:00,
2013-05-18 14:22:00,69.3,10.4,30.11,WSW,251,2.7,5.4,10,0.00,,,0.00,VWS V14.01,2013-05-18 21:22:00,
2013-05-18 14:27:00,69.8,8.5,30.11,SSW,203,6.3,6.3,9,0.00,,,0.00,VWS V14.01,2013-05-18 21:27:00,
2013-05-18 14:33:00,70.2,8.7,30.11,SW,231,3.1,5.4,9,0.00,,,0.00,VWS V14.01,2013-05-18 21:33:00,
2013-05-18 14:38:00,70.7,9.1,30.11,South,183,3.1,5.8,9,0.00,,,0.00,VWS V14.01,2013-05-18 21:38:00,
2013-05-18 14:43:00,71.1,9.4,30.11,SSW,212,5.8,5.8,9,0.00,,,0.00,VWS V14.01,2013-05-18 21:43:00,
2013-05-18 14:48:00,71.6,9.8,30.11,WSW,253,6.3,6.3,9,0.00,,,0.00,VWS V14.01,2013-05-18 21:48:00,
2013-05-18 14:53:00,72.1,10.2,30.11,SSW,198,4.0,4.9,9,0.00,,,0.00,VWS V14.01,2013-05-18 21:53:00,
2013-05-18 14:58:00,72.1,10.2,30.11,SSW,204,3.1,8.3,9,0.00,,,0.00,VWS V14.01,2013-05-18 21:58:00,
2013-05-18 15:03:00,72.7,10.6,30.11,WSW,253,6.3,6.3,9,0.00,,,0.00,VWS V14.01,2013-05-18 22:03:00,
2013-05-18 15:08:00,72.9,10.8,30.11,SSE,162,3.6,4.9,9,0.00,,,0.00,VWS V14.01,2013-05-18 22:08:00,
2013-05-18 15:13:00,73.2,11.1,30.11,SW,215,6.3,6.3,9,0.00,,,0.00,VWS V14.01,2013-05-18 22:13:00,
2013-05-18 15:18:00,73.0,10.9,30.11,SW,221,5.4,5.4,9,0.00,,,0.00,VWS V14.01,2013-05-18 22:18:00,
2013-05-18 15:23:00,72.9,10.8,30.11,SSE,149,4.0,4.0,9,0.00,,,0.00,VWS V14.01,2013-05-18 22:23:00,
2013-05-18 15:28:00,73.2,11.1,30.11,SSW,209,6.3,6.3,9,0.00,,,0.00,VWS V14.01,2013-05-18 22:28:00,
2013-05-18 15:33:00,73.2,11.1,30.11,SW,222,4.0,5.8,9,0.00,,,0.00,VWS V14.01,2013-05-18 22:33:00,
2013-05-18 15:38:00,73.4,8.6,30.11,SW,218,5.8,6.3,8,0.00,,,0.00,VWS V14.01,2013-05-18 22:38:00,
2013-05-18 15:43:00,73.2,11.1,30.11,South,183,5.8,5.8,9,0.00,,,0.00,VWS V14.01,2013-05-18 22:43:00,
2013-05-18 15:48:00,72.7,10.6,30.11,SSW,200,5.4,5.4,9,0.00,,,0.00,VWS V14.01,2013-05-18 22:48:00,
2013-05-18 15:53:00,72.5,10.5,30.11,SW,234,3.1,4.0,9,0.00,,,0.00,VWS V14.01,2013-05-18 22:53:00,
2013-05-18 15:58:00,72.3,10.4,30.11,SSW,207,2.7,4.9,9,0.00,,,0.00,VWS V14.01,2013-05-18 22:58:00,
2013-05-18 16:03:00,72.7,10.6,30.11,WSW,251,7.6,7.6,9,0.00,,,0.00,VWS V14.01,2013-05-18 23:03:00,
2013-05-18 16:08:00,72.3,10.4,30.11,WSW,249,3.6,4.9,9,0.00,,,0.00,VWS V14.01,2013-05-18 23:08:00,
2013-05-18 16:13:00,72.7,10.6,30.11,SW,232,4.0,4.0,9,0.00,,,0.00,VWS V14.01,2013-05-18 23:13:00,
2013-05-18 16:18:00,73.0,10.9,30.11,South,179,3.1,3.6,9,0.00,,,0.00,VWS V14.01,2013-05-18 23:18:00,
2013-05-18 16:23:00,73.0,10.9,30.11,South,186,4.9,5.4,9,0.00,,,0.00,VWS V14.01,2013-05-18 23:23:00,
2013-05-18 16:28:00,73.6,8.7,30.11,ENE,78,2.7,5.4,8,0.00,,,0.00,VWS V14.01,2013-05-18 23:28:00,
2013-05-18 16:33:00,73.6,8.7,30.11,ESE,109,3.6,4.0,8,0.00,,,0.00,VWS V14.01,2013-05-18 23:33:00,
2013-05-18 16:38:00,73.9,9.0,30.11,SSW,204,6.3,6.3,8,0.00,,,0.00,VWS V14.01,2013-05-18 23:38:00,
2013-05-18 16:43:00,74.5,9.4,30.11,SSW,213,4.9,5.4,8,0.00,,,0.00,VWS V14.01,2013-05-18 23:43:00,
2013-05-18 16:48:00,74.7,9.5,30.11,WSW,244,5.8,5.8,8,0.00,,,0.00,VWS V14.01,2013-05-18 23:48:00,
2013-05-18 16:53:00,74.3,9.2,30.11,WSW,241,6.3,6.7,8,0.00,,,0.00,VWS V14.01,2013-05-18 23:53:00,
2013-05-18 16:58:00,73.6,8.7,30.11,SW,218,4.9,5.8,8,0.00,,,0.00,VWS V14.01,2013-05-18 23:58:00,
2013-05-18 17:04:00,73.2,11.1,30.11,SW,219,6.3,6.3,9,0.00,,,0.00,VWS V14.01,2013-05-19 00:04:00,
2013-05-18 17:09:00,73.0,10.9,30.11,South,187,2.7,5.4,9,0.00,,,0.00,VWS V14.01,2013-05-19 00:09:00,
2013-05-18 17:14:00,73.2,11.1,30.11,SW,221,6.3,6.3,9,0.00,,,0.00,VWS V14.01,2013-05-19 00:14:00,
2013-05-18 17:19:00,72.1,10.2,30.11,SW,219,3.6,5.4,9,0.00,,,0.00,VWS V14.01,2013-05-19 00:19:00,
2013-05-18 17:24:00,71.8,10.0,30.11,WSW,237,5.4,5.4,9,0.00,,,0.00,VWS V14.01,2013-05-19 00:24:00,
2013-05-18 17:29:00,71.6,9.8,30.11,SSE,153,2.7,4.9,9,0.00,,,0.00,VWS V14.01,2013-05-19 00:29:00,
2013-05-18 17:34:00,71.6,9.8,30.11,SSW,204,4.0,4.0,9,0.00,,,0.00,VWS V14.01,2013-05-19 00:34:00,
2013-05-18 17:39:00,71.8,10.0,30.11,West,273,3.6,5.8,9,0.00,,,0.00,VWS V14.01,2013-05-19 00:39:00,
2013-05-18 17:44:00,71.4,9.7,30.11,SW,232,5.4,5.4,9,0.00,,,0.00,VWS V14.01,2013-05-19 00:44:00,
2013-05-18 17:49:00,71.4,9.7,30.11,SW,229,3.6,3.6,9,0.00,,,0.00,VWS V14.01,2013-05-19 00:49:00,
2013-05-18 17:54:00,71.4,9.7,30.11,SW,216,4.0,4.0,9,0.00,,,0.00,VWS V14.01,2013-05-19 00:54:00,
2013-05-18 17:59:00,71.6,9.8,30.11,SW,231,2.7,5.4,9,0.00,,,0.00,VWS V14.01,2013-05-19 00:59:00,
2013-05-18 18:04:00,71.2,9.6,30.11,SW,218,3.6,4.0,9,0.00,,,0.00,VWS V14.01,2013-05-19 01:04:00,
2013-05-18 18:09:00,71.1,9.4,30.11,West,264,3.6,6.3,9,0.00,,,0.00,VWS V14.01,2013-05-19 01:09:00,
2013-05-18 18:14:00,70.5,9.0,30.11,WSW,249,5.4,5.4,9,0.00,,,0.00,VWS V14.01,2013-05-19 01:14:00,
2013-05-18 18:19:00,70.2,8.7,30.11,WSW,241,2.7,2.7,9,0.00,,,0.00,VWS V14.01,2013-05-19 01:19:00,
2013-05-18 18:24:00,70.2,8.7,30.11,SSW,210,2.7,2.7,9,0.00,,,0.00,VWS V14.01,2013-05-19 01:24:00,
2013-05-18 18:29:00,70.2,8.7,30.11,WSW,249,3.6,5.4,9,0.00,,,0.00,VWS V14.01,2013-05-19 01:29:00,
2013-05-18 18:34:00,69.8,8.5,30.11,SSW,196,4.0,4.0,9,0.00,,,0.00,VWS V14.01,2013-05-19 01:34:00,
2013-05-18 18:39:00,70.0,8.6,30.11,South,184,3.6,3.6,9,0.00,,,0.00,VWS V14.01,2013-05-19 01:39:00,
2013-05-18 18:44:00,70.0,8.6,30.11,SW,227,3.1,4.0,9,0.00,,,0.00,VWS V14.01,2013-05-19 01:44:00,
2013-05-18 18:49:00,70.0,8.6,30.11,SSW,192,4.0,6.3,9,0.00,,,0.00,VWS V14.01,2013-05-19 01:49:00,
2013-05-18 18:54:00,69.8,8.5,30.11,WNW,290,5.4,7.6,9,0.00,,,0.00,VWS V14.01,2013-05-19 01:54:00,
2013-05-18 18:59:00,69.1,10.3,30.11,SSW,194,7.6,7.6,10,0.00,,,0.00,VWS V14.01,2013-05-19 01:59:00,
2013-05-18 19:04:00,68.7,10.0,30.11,SW,233,5.4,8.3,10,0.00,,,0.00,VWS V14.01,2013-05-19 02:04:00,
2013-05-18 19:09:00,68.0,9.4,30.11,WNW,293,3.1,5.8,10,0.00,,,0.00,VWS V14.01,2013-05-19 02:09:00,
2013-05-18 19:14:00,67.5,9.0,30.11,WNW,287,8.1,8.1,10,0.00,,,0.00,VWS V14.01,2013-05-19 02:14:00,
2013-05-18 19:19:00,67.1,8.7,30.11,WNW,282,4.5,10.5,10,0.00,,,0.00,VWS V14.01,2013-05-19 02:19:00,
2013-05-18 19:24:00,66.7,8.5,30.11,WNW,293,5.8,6.3,10,0.00,,,0.00,VWS V14.01,2013-05-19 02:24:00,
2013-05-18 19:29:00,66.6,8.3,30.11,North,350,4.0,4.0,10,0.00,,,0.00,VWS V14.01,2013-05-19 02:29:00,
2013-05-18 19:34:00,66.4,8.2,30.11,WSW,257,8.1,8.1,10,0.00,,,0.00,VWS V14.01,2013-05-19 02:34:00,
2013-05-18 19:39:00,66.0,7.9,30.11,SW,221,4.9,4.9,10,0.00,,,0.00,VWS V14.01,2013-05-19 02:39:00,
2013-05-18 19:44:00,65.7,13.5,30.11,SSW,209,4.9,5.8,13,0.00,,,0.00,VWS V14.01,2013-05-19 02:44:00,
2013-05-18 19:49:00,64.9,12.9,30.11,SW,231,3.6,3.6,13,0.00,,,0.00,VWS V14.01,2013-05-19 02:49:00,
2013-05-18 19:54:00,64.4,12.5,30.11,SSW,213,2.7,4.0,13,0.00,,,0.00,VWS V14.01,2013-05-19 02:54:00,
2013-05-18 20:00:00,63.9,12.1,30.11,WSW,254,3.1,3.6,13,0.00,,,0.00,VWS V14.01,2013-05-19 03:00:00,
2013-05-18 20:05:00,63.3,11.7,30.11,SW,219,3.6,4.0,13,0.00,,,0.00,VWS V14.01,2013-05-19 03:05:00,
2013-05-18 20:10:00,63.0,16.1,30.11,WSW,244,4.0,4.0,16,0.00,,,0.00,VWS V14.01,2013-05-19 03:10:00,
2013-05-18 20:15:00,62.4,12.6,30.11,West,276,3.1,6.3,14,0.00,,,0.00,VWS V14.01,2013-05-19 03:15:00,
2013-05-18 20:20:00,62.2,12.5,30.11,WSW,251,3.6,5.8,14,0.00,,,0.00,VWS V14.01,2013-05-19 03:20:00,
2013-05-18 20:25:00,61.9,12.2,30.11,West,269,4.5,4.9,14,0.00,,,0.00,VWS V14.01,2013-05-19 03:25:00,
2013-05-18 20:30:00,61.9,15.2,30.11,West,262,3.6,4.0,16,0.00,,,0.00,VWS V14.01,2013-05-19 03:30:00,
2013-05-18 20:35:00,61.9,15.2,30.11,SSW,212,7.6,7.6,16,0.00,,,0.00,VWS V14.01,2013-05-19 03:35:00,
2013-05-18 20:40:00,61.5,18.9,30.11,WSW,244,5.8,5.8,19,0.00,,,0.00,VWS V14.01,2013-05-19 03:40:00,
2013-05-18 20:45:00,61.3,18.8,30.11,SSW,204,2.7,3.1,19,0.00,,,0.00,VWS V14.01,2013-05-19 03:45:00,
2013-05-18 20:50:00,61.0,18.5,30.11,ESE,109,0.0,3.1,19,0.00,,,0.00,VWS V14.01,2013-05-19 03:50:00,
2013-05-18 20:55:00,60.6,21.6,30.11,SSW,197,2.7,3.6,22,0.00,,,0.00,VWS V14.01,2013-05-19 03:55:00,
2013-05-18 21:00:00,60.4,23.5,30.11,SSW,204,6.3,6.3,24,0.00,,,0.00,VWS V14.01,2013-05-19 04:00:00,
2013-05-18 21:01:00,60.4,23.5,30.11,SSW,195,5.8,5.8,24,0.00,,,0.00,VWS V14.01,2013-05-19 04:01:00,
2013-05-18 21:02:00,60.4,23.5,30.11,SW,217,4.0,6.3,24,0.00,,,0.00,VWS V14.01,2013-05-19 04:02:00,
2013-05-18 21:07:00,60.4,23.5,30.11,SW,236,4.9,4.9,24,0.00,,,0.00,VWS V14.01,2013-05-19 04:07:00,
2013-05-18 21:12:00,60.1,23.2,30.11,SW,215,2.7,4.9,24,0.00,,,0.00,VWS V14.01,2013-05-19 04:12:00,
2013-05-18 21:17:00,59.9,24.0,30.11,WSW,238,4.0,4.9,25,0.00,,,0.00,VWS V14.01,2013-05-19 04:17:00,
2013-05-18 21:22:00,59.7,23.9,30.11,SSW,209,2.7,2.7,25,0.00,,,0.00,VWS V14.01,2013-05-19 04:22:00,
2013-05-18 21:27:00,59.5,23.7,30.11,South,170,0.0,2.2,25,0.00,,,0.00,VWS V14.01,2013-05-19 04:27:00,
2013-05-18 21:32:00,59.4,23.6,30.11,SSW,209,2.7,3.6,25,0.00,,,0.00,VWS V14.01,2013-05-19 04:32:00,
2013-05-18 21:37:00,59.2,23.4,30.11,South,175,3.1,3.1,25,0.00,,,0.00,VWS V14.01,2013-05-19 04:37:00,
2013-05-18 21:42:00,59.2,23.4,30.11,SW,224,2.2,2.7,25,0.00,,,0.00,VWS V14.01,2013-05-19 04:42:00,
2013-05-18 21:47:00,59.2,23.4,30.11,South,174,3.1,3.1,25,0.00,,,0.00,VWS V14.01,2013-05-19 04:47:00,
2013-05-18 21:52:00,59.2,23.4,30.11,WSW,243,4.0,4.0,25,0.00,,,0.00,VWS V14.01,2013-05-19 04:52:00,
2013-05-18 21:57:00,59.2,23.4,30.11,SE,144,2.2,2.7,25,0.00,,,0.00,VWS V14.01,2013-05-19 04:57:00,
2013-05-18 22:02:00,59.2,23.4,30.11,SW,236,0.0,0.0,25,0.00,,,0.00,VWS V14.01,2013-05-19 05:02:00,
2013-05-18 22:07:00,59.0,23.2,30.11,SW,221,0.0,0.0,25,0.00,,,0.00,VWS V14.01,2013-05-19 05:07:00,
2013-05-18 22:12:00,58.8,23.1,30.11,SSE,156,2.7,3.1,25,0.00,,,0.00,VWS V14.01,2013-05-19 05:12:00,
2013-05-18 22:17:00,58.6,22.9,30.11,SSE,152,0.0,0.0,25,0.00,,,0.00,VWS V14.01,2013-05-19 05:17:00,
2013-05-18 22:22:00,58.5,22.8,30.11,SE,130,0.0,0.0,25,0.00,,,0.00,VWS V14.01,2013-05-19 05:22:00,
2013-05-18 22:27:00,58.5,21.8,30.11,SSE,148,2.2,3.1,24,0.00,,,0.00,VWS V14.01,2013-05-19 05:27:00,
2013-05-18 22:32:00,58.3,21.7,30.11,SE,140,0.0,0.0,24,0.00,,,0.00,VWS V14.01,2013-05-19 05:32:00,
2013-05-18 22:37:00,58.1,21.5,30.11,SSW,203,0.0,0.0,24,0.00,,,0.00,VWS V14.01,2013-05-19 05:37:00,
2013-05-18 22:42:00,58.1,21.5,30.11,WSW,237,4.0,4.0,24,0.00,,,0.00,VWS V14.01,2013-05-19 05:42:00,
2013-05-18 22:47:00,58.1,19.5,30.11,SW,220,4.0,4.0,22,0.00,,,0.00,VWS V14.01,2013-05-19 05:47:00,
2013-05-18 22:52:00,58.3,19.6,30.11,SW,229,3.6,3.6,22,0.00,,,0.00,VWS V14.01,2013-05-19 05:52:00,
2013-05-18 22:57:00,58.3,16.2,30.11,SW,225,0.0,2.7,19,0.00,,,0.00,VWS V14.01,2013-05-19 05:57:00,
2013-05-18 23:02:00,58.3,16.2,30.11,SW,236,0.0,0.0,19,0.00,,,0.00,VWS V14.01,2013-05-19 06:02:00,
2013-05-18 23:07:00,57.9,15.9,30.11,SW,224,2.7,2.7,19,0.00,,,0.00,VWS V14.01,2013-05-19 06:07:00,
2013-05-18 23:12:00,57.9,15.9,30.11,WSW,257,0.0,0.0,19,0.00,,,0.00,VWS V14.01,2013-05-19 06:12:00,
2013-05-18 23:17:00,57.7,15.8,30.11,SW,221,0.0,0.0,19,0.00,,,0.00,VWS V14.01,2013-05-19 06:17:00,
2013-05-18 23:22:00,57.6,15.6,30.11,SW,225,0.0,2.7,19,0.00,,,0.00,VWS V14.01,2013-05-19 06:22:00,
2013-05-18 23:28:00,57.4,15.5,30.11,SW,224,0.0,0.0,19,0.00,,,0.00,VWS V14.01,2013-05-19 06:28:00,
2013-05-18 23:33:00,57.2,12.8,30.11,SW,225,0.0,0.0,17,0.00,,,0.00,VWS V14.01,2013-05-19 06:33:00,
2013-05-18 23:38:00,57.0,16.4,30.11,SW,224,0.0,0.0,20,0.00,,,0.00,VWS V14.01,2013-05-19 06:38:00,
2013-05-18 23:43:00,56.8,16.2,30.11,SW,225,0.0,0.0,20,0.00,,,0.00,VWS V14.01,2013-05-19 06:43:00,
2013-05-18 23:48:00,56.7,16.1,30.11,SW,225,0.0,0.0,20,0.00,,,0.00,VWS V14.01,2013-05-19 06:48:00,
2013-05-18 23:53:00,56.5,15.9,30.11,SW,225,0.0,0.0,20,0.00,,,0.00,VWS V14.01,2013-05-19 06:53:00,
2013-05-18 23:58:00,56.3,15.8,30.11,SW,225,0.0,0.0,20,0.00,,,0.00,VWS V14.01,2013-05-19 06:58:00,